sensor_id;sensor_type;location;lat;lon;timestamp;P1;durP1;ratioP1;P2;durP2;ratioP2
66667;SDS011;57205;51.438;-2.006;2022-12-07T00:03:40;20.90;;;11.50;;
66667;SDS011;57205;51.438;-2.006;2022-12-07T00:06:07;18.13;;;11.57;;
66667;SDS011;57205;51.438;-2.006;2022-12-07T00:08:35;18.57;;;11.23;;
66667;SDS011;57205;51.438;-2.006;2022-12-07T00:11:04;20.73;;;12.33;;
66667;SDS011;57205;51.438;-2.006;2022-12-07T00:13:32;18.00;;;12.40;;
66667;SDS011;57205;51.438;-2.006;2022-12-07T00:16:02;20.00;;;12.00;;
66667;SDS011;57205;51.438;-2.006;2022-12-07T00:18:27;18.30;;;11.70;;
66667;SDS011;57205;51.438;-2.006;2022-12-07T00:20:52;19.67;;;11.37;;
66667;SDS011;57205;51.438;-2.006;2022-12-07T00:23:18;20.60;;;12.27;;
66667;SDS011;57205;51.438;-2.006;2022-12-07T00:25:43;16.67;;;11.87;;
66667;SDS011;57205;51.438;-2.006;2022-12-07T00:28:09;18.00;;;12.37;;
66667;SDS011;57205;51.438;-2.006;2022-12-07T00:30:35;18.63;;;11.27;;
66667;SDS011;57205;51.438;-2.006;2022-12-07T00:33:01;15.13;;;10.93;;
66667;SDS011;57205;51.438;-2.006;2022-12-07T00:35:26;17.50;;;11.43;;
66667;SDS011;57205;51.438;-2.006;2022-12-07T00:37:51;18.07;;;11.03;;
66667;SDS011;57205;51.438;-2.006;2022-12-07T00:40:18;17.83;;;11.90;;
66667;SDS011;57205;51.438;-2.006;2022-12-07T00:42:43;17.13;;;11.17;;
66667;SDS011;57205;51.438;-2.006;2022-12-07T00:45:09;20.50;;;12.10;;
66667;SDS011;57205;51.438;-2.006;2022-12-07T00:47:34;18.17;;;12.00;;
66667;SDS011;57205;51.438;-2.006;2022-12-07T00:50:00;16.63;;;11.43;;
66667;SDS011;57205;51.438;-2.006;2022-12-07T00:52:25;18.30;;;11.50;;
66667;SDS011;57205;51.438;-2.006;2022-12-07T00:54:50;18.10;;;11.97;;
66667;SDS011;57205;51.438;-2.006;2022-12-07T00:57:16;18.93;;;11.30;;
66667;SDS011;57205;51.438;-2.006;2022-12-07T00:59:41;19.60;;;10.63;;
66667;SDS011;57205;51.438;-2.006;2022-12-07T01:02:07;17.23;;;10.73;;
66667;SDS011;57205;51.438;-2.006;2022-12-07T01:04:33;20.13;;;11.37;;
66667;SDS011;57205;51.438;-2.006;2022-12-07T01:06:59;22.50;;;12.80;;
66667;SDS011;57205;51.438;-2.006;2022-12-07T01:09:24;18.53;;;12.00;;
66667;SDS011;57205;51.438;-2.006;2022-12-07T01:11:50;18.63;;;11.67;;
66667;SDS011;57205;51.438;-2.006;2022-12-07T01:14:15;19.67;;;11.10;;
66667;SDS011;57205;51.438;-2.006;2022-12-07T01:16:40;19.33;;;11.70;;
66667;SDS011;57205;51.438;-2.006;2022-12-07T01:19:06;18.20;;;11.93;;
66667;SDS011;57205;51.438;-2.006;2022-12-07T01:21:32;19.13;;;11.30;;
66667;SDS011;57205;51.438;-2.006;2022-12-07T01:24:06;23.03;;;12.30;;
66667;SDS011;57205;51.438;-2.006;2022-12-07T01:26:35;16.83;;;12.50;;
66667;SDS011;57205;51.438;-2.006;2022-12-07T01:29:00;17.87;;;11.20;;
66667;SDS011;57205;51.438;-2.006;2022-12-07T01:31:26;18.13;;;11.70;;
66667;SDS011;57205;51.438;-2.006;2022-12-07T01:33:56;17.53;;;10.53;;
66667;SDS011;57205;51.438;-2.006;2022-12-07T01:36:24;19.67;;;12.23;;
66667;SDS011;57205;51.438;-2.006;2022-12-07T01:38:53;22.00;;;12.43;;
66667;SDS011;57205;51.438;-2.006;2022-12-07T01:41:21;20.37;;;12.53;;
66667;SDS011;57205;51.438;-2.006;2022-12-07T01:46:57;20.80;;;13.67;;
66667;SDS011;57205;51.438;-2.006;2022-12-07T01:49:31;22.83;;;13.77;;
66667;SDS011;57205;51.438;-2.006;2022-12-07T01:52:42;22.58;;;13.18;;
66667;SDS011;57205;51.438;-2.006;2022-12-07T01:54:48;23.87;;;14.07;;
66667;SDS011;57205;51.438;-2.006;2022-12-07T01:57:16;25.43;;;13.00;;
66667;SDS011;57205;51.438;-2.006;2022-12-07T01:59:42;24.60;;;13.73;;
66667;SDS011;57205;51.438;-2.006;2022-12-07T02:02:13;21.13;;;12.27;;
66667;SDS011;57205;51.438;-2.006;2022-12-07T02:04:44;22.67;;;13.60;;
66667;SDS011;57205;51.438;-2.006;2022-12-07T02:07:10;21.03;;;13.13;;
66667;SDS011;57205;51.438;-2.006;2022-12-07T02:09:36;25.67;;;13.87;;
66667;SDS011;57205;51.438;-2.006;2022-12-07T02:12:02;23.23;;;13.70;;
66667;SDS011;57205;51.438;-2.006;2022-12-07T02:14:28;23.70;;;13.30;;
66667;SDS011;57205;51.438;-2.006;2022-12-07T02:17:08;23.07;;;11.93;;
66667;SDS011;57205;51.438;-2.006;2022-12-07T02:24:58;22.47;;;13.30;;
66667;SDS011;57205;51.438;-2.006;2022-12-07T02:27:46;24.00;;;14.67;;
66667;SDS011;57205;51.438;-2.006;2022-12-07T02:30:31;27.93;;;14.53;;
66667;SDS011;57205;51.438;-2.006;2022-12-07T02:35:41;25.13;;;13.03;;
66667;SDS011;57205;51.438;-2.006;2022-12-07T02:38:23;23.30;;;13.17;;
66667;SDS011;57205;51.438;-2.006;2022-12-07T02:40:55;20.02;;;11.57;;
66667;SDS011;57205;51.438;-2.006;2022-12-07T02:43:27;19.13;;;11.98;;
66667;SDS011;57205;51.438;-2.006;2022-12-07T02:46:01;20.03;;;12.53;;
66667;SDS011;57205;51.438;-2.006;2022-12-07T02:48:34;25.07;;;12.60;;
66667;SDS011;57205;51.438;-2.006;2022-12-07T02:51:03;20.53;;;13.27;;
66667;SDS011;57205;51.438;-2.006;2022-12-07T02:55:58;19.27;;;11.93;;
66667;SDS011;57205;51.438;-2.006;2022-12-07T03:01:04;24.60;;;12.60;;
66667;SDS011;57205;51.438;-2.006;2022-12-07T03:03:31;23.07;;;12.77;;
66667;SDS011;57205;51.438;-2.006;2022-12-07T03:06:03;23.63;;;12.77;;
66667;SDS011;57205;51.438;-2.006;2022-12-07T03:11:10;24.00;;;13.40;;
66667;SDS011;57205;51.438;-2.006;2022-12-07T03:13:54;22.33;;;13.33;;
66667;SDS011;57205;51.438;-2.006;2022-12-07T03:16:44;19.47;;;12.93;;
66667;SDS011;57205;51.438;-2.006;2022-12-07T03:19:18;20.93;;;12.23;;
66667;SDS011;57205;51.438;-2.006;2022-12-07T03:21:49;22.93;;;13.10;;
66667;SDS011;57205;51.438;-2.006;2022-12-07T03:24:26;23.70;;;14.27;;
66667;SDS011;57205;51.438;-2.006;2022-12-07T03:26:59;24.27;;;13.20;;
66667;SDS011;57205;51.438;-2.006;2022-12-07T03:29:34;24.97;;;12.93;;
66667;SDS011;57205;51.438;-2.006;2022-12-07T03:32:12;21.00;;;12.23;;
66667;SDS011;57205;51.438;-2.006;2022-12-07T03:34:56;24.73;;;13.87;;
66667;SDS011;57205;51.438;-2.006;2022-12-07T03:40:23;21.00;;;12.73;;
66667;SDS011;57205;51.438;-2.006;2022-12-07T03:42:54;23.47;;;12.63;;
66667;SDS011;57205;51.438;-2.006;2022-12-07T03:45:26;24.03;;;14.23;;
66667;SDS011;57205;51.438;-2.006;2022-12-07T03:48:05;22.90;;;13.37;;
66667;SDS011;57205;51.438;-2.006;2022-12-07T03:50:44;22.92;;;13.20;;
66667;SDS011;57205;51.438;-2.006;2022-12-07T03:53:18;20.57;;;12.83;;
66667;SDS011;57205;51.438;-2.006;2022-12-07T03:55:48;22.33;;;13.77;;
66667;SDS011;57205;51.438;-2.006;2022-12-07T03:58:16;20.17;;;13.00;;
66667;SDS011;57205;51.438;-2.006;2022-12-07T04:00:44;20.23;;;12.73;;
66667;SDS011;57205;51.438;-2.006;2022-12-07T04:03:10;19.50;;;11.90;;
66667;SDS011;57205;51.438;-2.006;2022-12-07T04:05:36;25.13;;;12.47;;
66667;SDS011;57205;51.438;-2.006;2022-12-07T04:08:03;26.60;;;13.17;;
66667;SDS011;57205;51.438;-2.006;2022-12-07T04:10:29;22.73;;;13.57;;
66667;SDS011;57205;51.438;-2.006;2022-12-07T04:12:54;25.03;;;12.27;;
66667;SDS011;57205;51.438;-2.006;2022-12-07T04:15:20;24.57;;;13.63;;
66667;SDS011;57205;51.438;-2.006;2022-12-07T04:17:45;23.10;;;13.63;;
66667;SDS011;57205;51.438;-2.006;2022-12-07T04:20:11;22.50;;;12.23;;
66667;SDS011;57205;51.438;-2.006;2022-12-07T04:22:37;19.30;;;11.17;;
66667;SDS011;57205;51.438;-2.006;2022-12-07T04:25:02;20.27;;;12.17;;
66667;SDS011;57205;51.438;-2.006;2022-12-07T04:27:28;22.70;;;11.90;;
66667;SDS011;57205;51.438;-2.006;2022-12-07T04:29:53;20.53;;;11.43;;
66667;SDS011;57205;51.438;-2.006;2022-12-07T04:32:20;20.40;;;12.50;;
66667;SDS011;57205;51.438;-2.006;2022-12-07T04:34:46;17.47;;;11.60;;
66667;SDS011;57205;51.438;-2.006;2022-12-07T04:37:12;19.07;;;11.60;;
66667;SDS011;57205;51.438;-2.006;2022-12-07T04:39:37;21.77;;;12.90;;
66667;SDS011;57205;51.438;-2.006;2022-12-07T04:42:02;21.80;;;12.83;;
66667;SDS011;57205;51.438;-2.006;2022-12-07T04:44:28;19.17;;;11.83;;
66667;SDS011;57205;51.438;-2.006;2022-12-07T04:46:54;22.60;;;13.27;;
66667;SDS011;57205;51.438;-2.006;2022-12-07T04:49:20;22.03;;;12.67;;
66667;SDS011;57205;51.438;-2.006;2022-12-07T04:51:46;21.57;;;12.27;;
66667;SDS011;57205;51.438;-2.006;2022-12-07T04:54:12;19.20;;;11.60;;
66667;SDS011;57205;51.438;-2.006;2022-12-07T04:56:38;22.67;;;12.50;;
66667;SDS011;57205;51.438;-2.006;2022-12-07T04:59:04;20.73;;;12.80;;
66667;SDS011;57205;51.438;-2.006;2022-12-07T05:01:30;22.57;;;12.77;;
66667;SDS011;57205;51.438;-2.006;2022-12-07T05:03:56;19.20;;;12.03;;
66667;SDS011;57205;51.438;-2.006;2022-12-07T05:06:21;18.47;;;11.70;;
66667;SDS011;57205;51.438;-2.006;2022-12-07T05:08:47;17.07;;;10.93;;
66667;SDS011;57205;51.438;-2.006;2022-12-07T05:11:12;15.67;;;10.90;;
66667;SDS011;57205;51.438;-2.006;2022-12-07T05:13:59;15.37;;;9.07;;
66667;SDS011;57205;51.438;-2.006;2022-12-07T05:16:24;17.57;;;10.73;;
66667;SDS011;57205;51.438;-2.006;2022-12-07T05:18:50;16.67;;;10.10;;
66667;SDS011;57205;51.438;-2.006;2022-12-07T05:21:16;16.40;;;11.20;;
66667;SDS011;57205;51.438;-2.006;2022-12-07T05:23:41;16.33;;;10.93;;
66667;SDS011;57205;51.438;-2.006;2022-12-07T05:26:06;20.57;;;11.37;;
66667;SDS011;57205;51.438;-2.006;2022-12-07T05:28:32;18.10;;;11.67;;
66667;SDS011;57205;51.438;-2.006;2022-12-07T05:30:58;18.70;;;10.73;;
66667;SDS011;57205;51.438;-2.006;2022-12-07T05:33:23;21.13;;;11.97;;
66667;SDS011;57205;51.438;-2.006;2022-12-07T05:35:49;19.30;;;11.33;;
66667;SDS011;57205;51.438;-2.006;2022-12-07T05:38:14;18.27;;;12.33;;
66667;SDS011;57205;51.438;-2.006;2022-12-07T05:40:39;18.83;;;11.93;;
66667;SDS011;57205;51.438;-2.006;2022-12-07T05:43:05;18.73;;;11.07;;
66667;SDS011;57205;51.438;-2.006;2022-12-07T05:45:30;18.60;;;11.07;;
66667;SDS011;57205;51.438;-2.006;2022-12-07T05:47:55;21.90;;;12.67;;
66667;SDS011;57205;51.438;-2.006;2022-12-07T05:50:21;19.83;;;12.47;;
66667;SDS011;57205;51.438;-2.006;2022-12-07T05:52:46;17.80;;;12.03;;
66667;SDS011;57205;51.438;-2.006;2022-12-07T05:55:12;20.93;;;11.40;;
66667;SDS011;57205;51.438;-2.006;2022-12-07T05:57:38;19.10;;;11.70;;
66667;SDS011;57205;51.438;-2.006;2022-12-07T06:00:03;17.13;;;11.30;;
66667;SDS011;57205;51.438;-2.006;2022-12-07T06:02:30;18.67;;;10.63;;
66667;SDS011;57205;51.438;-2.006;2022-12-07T06:04:55;18.47;;;11.10;;
66667;SDS011;57205;51.438;-2.006;2022-12-07T06:07:20;18.97;;;10.77;;
66667;SDS011;57205;51.438;-2.006;2022-12-07T06:09:46;27.93;;;17.97;;
66667;SDS011;57205;51.438;-2.006;2022-12-07T06:12:12;24.00;;;12.37;;
66667;SDS011;57205;51.438;-2.006;2022-12-07T06:14:56;19.07;;;11.80;;
66667;SDS011;57205;51.438;-2.006;2022-12-07T06:17:22;15.93;;;11.10;;
66667;SDS011;57205;51.438;-2.006;2022-12-07T06:19:48;18.10;;;11.67;;
66667;SDS011;57205;51.438;-2.006;2022-12-07T06:22:13;17.47;;;11.30;;
66667;SDS011;57205;51.438;-2.006;2022-12-07T06:24:41;20.33;;;12.03;;
66667;SDS011;57205;51.438;-2.006;2022-12-07T06:27:07;20.80;;;12.27;;
66667;SDS011;57205;51.438;-2.006;2022-12-07T06:29:34;20.80;;;11.93;;
66667;SDS011;57205;51.438;-2.006;2022-12-07T06:32:00;22.83;;;13.07;;
66667;SDS011;57205;51.438;-2.006;2022-12-07T06:34:26;21.00;;;12.20;;
66667;SDS011;57205;51.438;-2.006;2022-12-07T06:36:52;21.93;;;11.93;;
66667;SDS011;57205;51.438;-2.006;2022-12-07T06:39:21;23.13;;;13.10;;
66667;SDS011;57205;51.438;-2.006;2022-12-07T06:41:48;25.20;;;14.23;;
66667;SDS011;57205;51.438;-2.006;2022-12-07T06:44:14;24.70;;;14.17;;
66667;SDS011;57205;51.438;-2.006;2022-12-07T06:46:40;24.43;;;13.70;;
66667;SDS011;57205;51.438;-2.006;2022-12-07T06:49:05;21.00;;;13.67;;
66667;SDS011;57205;51.438;-2.006;2022-12-07T06:51:32;28.30;;;13.87;;
66667;SDS011;57205;51.438;-2.006;2022-12-07T06:54:00;20.40;;;13.60;;
66667;SDS011;57205;51.438;-2.006;2022-12-07T06:56:25;21.63;;;13.27;;
66667;SDS011;57205;51.438;-2.006;2022-12-07T06:58:51;23.17;;;12.57;;
66667;SDS011;57205;51.438;-2.006;2022-12-07T07:01:16;23.63;;;13.47;;
66667;SDS011;57205;51.438;-2.006;2022-12-07T07:03:44;24.23;;;13.27;;
66667;SDS011;57205;51.438;-2.006;2022-12-07T07:06:10;24.07;;;14.93;;
66667;SDS011;57205;51.438;-2.006;2022-12-07T07:08:36;23.27;;;13.77;;
66667;SDS011;57205;51.438;-2.006;2022-12-07T07:11:02;21.77;;;12.73;;
66667;SDS011;57205;51.438;-2.006;2022-12-07T07:13:28;22.50;;;13.67;;
66667;SDS011;57205;51.438;-2.006;2022-12-07T07:15:54;26.60;;;15.03;;
66667;SDS011;57205;51.438;-2.006;2022-12-07T07:18:19;64.77;;;34.53;;
66667;SDS011;57205;51.438;-2.006;2022-12-07T07:20:45;31.93;;;16.47;;
66667;SDS011;57205;51.438;-2.006;2022-12-07T07:23:10;26.50;;;15.03;;
66667;SDS011;57205;51.438;-2.006;2022-12-07T07:25:36;27.57;;;14.93;;
66667;SDS011;57205;51.438;-2.006;2022-12-07T07:28:02;26.30;;;14.93;;
66667;SDS011;57205;51.438;-2.006;2022-12-07T07:30:27;24.70;;;14.53;;
66667;SDS011;57205;51.438;-2.006;2022-12-07T07:33:00;22.00;;;14.47;;
66667;SDS011;57205;51.438;-2.006;2022-12-07T07:35:27;19.15;;;12.18;;
66667;SDS011;57205;51.438;-2.006;2022-12-07T07:37:54;22.90;;;13.10;;
66667;SDS011;57205;51.438;-2.006;2022-12-07T07:40:20;22.40;;;13.80;;
66667;SDS011;57205;51.438;-2.006;2022-12-07T07:42:49;26.20;;;13.33;;
66667;SDS011;57205;51.438;-2.006;2022-12-07T07:45:15;22.47;;;13.00;;
66667;SDS011;57205;51.438;-2.006;2022-12-07T07:47:40;28.17;;;12.23;;
66667;SDS011;57205;51.438;-2.006;2022-12-07T07:50:06;24.70;;;13.60;;
66667;SDS011;57205;51.438;-2.006;2022-12-07T07:52:32;24.40;;;12.27;;
66667;SDS011;57205;51.438;-2.006;2022-12-07T07:54:58;19.63;;;11.80;;
66667;SDS011;57205;51.438;-2.006;2022-12-07T07:57:23;18.90;;;11.37;;
66667;SDS011;57205;51.438;-2.006;2022-12-07T07:59:49;20.10;;;11.77;;
66667;SDS011;57205;51.438;-2.006;2022-12-07T08:02:15;16.00;;;10.43;;
66667;SDS011;57205;51.438;-2.006;2022-12-07T08:04:43;21.07;;;12.80;;
66667;SDS011;57205;51.438;-2.006;2022-12-07T08:07:09;24.30;;;13.13;;
66667;SDS011;57205;51.438;-2.006;2022-12-07T08:09:35;25.53;;;12.83;;
66667;SDS011;57205;51.438;-2.006;2022-12-07T08:12:00;59.33;;;27.03;;
66667;SDS011;57205;51.438;-2.006;2022-12-07T08:14:26;21.20;;;13.17;;
66667;SDS011;57205;51.438;-2.006;2022-12-07T08:16:53;21.53;;;12.97;;
66667;SDS011;57205;51.438;-2.006;2022-12-07T08:19:19;22.83;;;12.80;;
66667;SDS011;57205;51.438;-2.006;2022-12-07T08:21:47;22.90;;;12.47;;
66667;SDS011;57205;51.438;-2.006;2022-12-07T08:24:14;38.03;;;19.90;;
66667;SDS011;57205;51.438;-2.006;2022-12-07T08:26:41;36.40;;;19.87;;
66667;SDS011;57205;51.438;-2.006;2022-12-07T08:29:07;22.60;;;12.67;;
66667;SDS011;57205;51.438;-2.006;2022-12-07T08:31:32;21.63;;;12.67;;
66667;SDS011;57205;51.438;-2.006;2022-12-07T08:33:58;20.67;;;11.87;;
66667;SDS011;57205;51.438;-2.006;2022-12-07T08:36:24;19.93;;;11.67;;
66667;SDS011;57205;51.438;-2.006;2022-12-07T08:38:51;18.43;;;11.07;;
66667;SDS011;57205;51.438;-2.006;2022-12-07T08:41:16;26.47;;;15.97;;
66667;SDS011;57205;51.438;-2.006;2022-12-07T08:43:42;25.50;;;14.77;;
66667;SDS011;57205;51.438;-2.006;2022-12-07T08:48:41;30.07;;;15.03;;
66667;SDS011;57205;51.438;-2.006;2022-12-07T08:51:11;23.63;;;13.57;;
66667;SDS011;57205;51.438;-2.006;2022-12-07T08:53:38;23.50;;;13.50;;
66667;SDS011;57205;51.438;-2.006;2022-12-07T08:56:04;24.87;;;14.93;;
66667;SDS011;57205;51.438;-2.006;2022-12-07T08:58:32;25.10;;;14.53;;
66667;SDS011;57205;51.438;-2.006;2022-12-07T09:00:58;24.20;;;14.10;;
66667;SDS011;57205;51.438;-2.006;2022-12-07T09:03:24;27.33;;;14.33;;
66667;SDS011;57205;51.438;-2.006;2022-12-07T09:05:49;27.47;;;15.10;;
66667;SDS011;57205;51.438;-2.006;2022-12-07T09:08:15;26.93;;;15.70;;
66667;SDS011;57205;51.438;-2.006;2022-12-07T09:10:41;26.97;;;14.33;;
66667;SDS011;57205;51.438;-2.006;2022-12-07T09:13:07;25.30;;;14.23;;
66667;SDS011;57205;51.438;-2.006;2022-12-07T09:15:32;33.80;;;18.10;;
66667;SDS011;57205;51.438;-2.006;2022-12-07T09:17:58;35.60;;;20.40;;
66667;SDS011;57205;51.438;-2.006;2022-12-07T09:20:23;32.10;;;17.83;;
66667;SDS011;57205;51.438;-2.006;2022-12-07T09:22:50;28.70;;;15.17;;
66667;SDS011;57205;51.438;-2.006;2022-12-07T09:25:15;27.43;;;16.03;;
66667;SDS011;57205;51.438;-2.006;2022-12-07T09:27:41;26.40;;;16.30;;
66667;SDS011;57205;51.438;-2.006;2022-12-07T09:30:07;39.43;;;19.03;;
66667;SDS011;57205;51.438;-2.006;2022-12-07T09:32:33;38.43;;;24.40;;
66667;SDS011;57205;51.438;-2.006;2022-12-07T09:34:58;26.20;;;15.73;;
66667;SDS011;57205;51.438;-2.006;2022-12-07T09:37:26;23.20;;;14.23;;
66667;SDS011;57205;51.438;-2.006;2022-12-07T09:39:52;31.93;;;15.60;;
66667;SDS011;57205;51.438;-2.006;2022-12-07T09:45:05;27.67;;;15.87;;
66667;SDS011;57205;51.438;-2.006;2022-12-07T09:47:32;26.73;;;15.83;;
66667;SDS011;57205;51.438;-2.006;2022-12-07T09:50:06;26.50;;;14.63;;
66667;SDS011;57205;51.438;-2.006;2022-12-07T09:52:37;27.43;;;15.23;;
66667;SDS011;57205;51.438;-2.006;2022-12-07T09:55:02;26.87;;;15.67;;
66667;SDS011;57205;51.438;-2.006;2022-12-07T09:57:29;37.23;;;17.70;;
66667;SDS011;57205;51.438;-2.006;2022-12-07T09:59:59;38.33;;;22.07;;
66667;SDS011;57205;51.438;-2.006;2022-12-07T10:02:36;55.67;;;27.37;;
66667;SDS011;57205;51.438;-2.006;2022-12-07T10:05:10;60.53;;;31.00;;
66667;SDS011;57205;51.438;-2.006;2022-12-07T10:07:45;85.40;;;42.23;;
66667;SDS011;57205;51.438;-2.006;2022-12-07T10:10:19;100.03;;;45.70;;
66667;SDS011;57205;51.438;-2.006;2022-12-07T10:12:53;92.27;;;50.47;;
66667;SDS011;57205;51.438;-2.006;2022-12-07T10:15:20;74.03;;;39.33;;
66667;SDS011;57205;51.438;-2.006;2022-12-07T10:17:52;66.23;;;35.33;;
66667;SDS011;57205;51.438;-2.006;2022-12-07T10:20:23;59.50;;;32.93;;
66667;SDS011;57205;51.438;-2.006;2022-12-07T10:25:25;45.37;;;23.53;;
66667;SDS011;57205;51.438;-2.006;2022-12-07T10:28:01;38.20;;;23.92;;
66667;SDS011;57205;51.438;-2.006;2022-12-07T10:30:33;41.07;;;22.23;;
66667;SDS011;57205;51.438;-2.006;2022-12-07T10:33:27;38.70;;;22.43;;
66667;SDS011;57205;51.438;-2.006;2022-12-07T10:35:53;34.47;;;19.50;;
66667;SDS011;57205;51.438;-2.006;2022-12-07T10:38:18;33.07;;;20.63;;
66667;SDS011;57205;51.438;-2.006;2022-12-07T10:40:44;36.43;;;19.90;;
66667;SDS011;57205;51.438;-2.006;2022-12-07T10:51:05;31.55;;;16.23;;
66667;SDS011;57205;51.438;-2.006;2022-12-07T10:56:54;17.67;;;11.33;;
66667;SDS011;57205;51.438;-2.006;2022-12-07T11:05:03;13.57;;;8.60;;
66667;SDS011;57205;51.438;-2.006;2022-12-07T11:07:56;17.70;;;9.50;;
66667;SDS011;57205;51.438;-2.006;2022-12-07T11:21:58;15.30;;;9.18;;
66667;SDS011;57205;51.438;-2.006;2022-12-07T11:24:32;16.00;;;9.43;;
66667;SDS011;57205;51.438;-2.006;2022-12-07T11:37:30;14.30;;;7.22;;
66667;SDS011;57205;51.438;-2.006;2022-12-07T11:40:18;12.77;;;8.40;;
66667;SDS011;57205;51.438;-2.006;2022-12-07T11:42:52;15.07;;;8.77;;
66667;SDS011;57205;51.438;-2.006;2022-12-07T11:48:08;14.95;;;8.73;;
66667;SDS011;57205;51.438;-2.006;2022-12-07T11:50:54;13.02;;;7.28;;
66667;SDS011;57205;51.438;-2.006;2022-12-07T11:56:02;17.60;;;6.65;;
66667;SDS011;57205;51.438;-2.006;2022-12-07T12:03:50;16.73;;;7.50;;
66667;SDS011;57205;51.438;-2.006;2022-12-07T12:06:41;13.52;;;7.53;;
66667;SDS011;57205;51.438;-2.006;2022-12-07T12:09:12;16.83;;;9.65;;
66667;SDS011;57205;51.438;-2.006;2022-12-07T12:20:18;29.60;;;15.82;;
66667;SDS011;57205;51.438;-2.006;2022-12-07T12:22:58;18.60;;;8.95;;
66667;SDS011;57205;51.438;-2.006;2022-12-07T12:25:34;13.40;;;8.25;;
66667;SDS011;57205;51.438;-2.006;2022-12-07T12:33:53;11.40;;;5.78;;
66667;SDS011;57205;51.438;-2.006;2022-12-07T12:36:25;9.45;;;4.70;;
66667;SDS011;57205;51.438;-2.006;2022-12-07T12:46:55;11.05;;;3.88;;
66667;SDS011;57205;51.438;-2.006;2022-12-07T12:56:59;21.23;;;8.13;;
66667;SDS011;57205;51.438;-2.006;2022-12-07T13:02:14;17.25;;;4.30;;
66667;SDS011;57205;51.438;-2.006;2022-12-07T13:05:16;9.00;;;3.63;;
66667;SDS011;57205;51.438;-2.006;2022-12-07T13:07:49;12.45;;;4.50;;
66667;SDS011;57205;51.438;-2.006;2022-12-07T13:12:56;19.92;;;6.22;;
66667;SDS011;57205;51.438;-2.006;2022-12-07T13:20:50;11.32;;;5.40;;
66667;SDS011;57205;51.438;-2.006;2022-12-07T13:28:31;10.60;;;5.35;;
66667;SDS011;57205;51.438;-2.006;2022-12-07T13:31:03;16.20;;;5.18;;
66667;SDS011;57205;51.438;-2.006;2022-12-07T13:33:50;13.88;;;4.88;;
66667;SDS011;57205;51.438;-2.006;2022-12-07T13:36:20;13.82;;;5.80;;
66667;SDS011;57205;51.438;-2.006;2022-12-07T13:38:58;13.05;;;5.70;;
66667;SDS011;57205;51.438;-2.006;2022-12-07T13:41:25;14.70;;;4.95;;
66667;SDS011;57205;51.438;-2.006;2022-12-07T13:46:19;14.73;;;4.95;;
66667;SDS011;57205;51.438;-2.006;2022-12-07T13:53:49;15.13;;;5.68;;
66667;SDS011;57205;51.438;-2.006;2022-12-07T13:56:16;10.95;;;5.38;;
66667;SDS011;57205;51.438;-2.006;2022-12-07T13:58:42;20.55;;;5.22;;
66667;SDS011;57205;51.438;-2.006;2022-12-07T14:01:08;9.90;;;4.43;;
66667;SDS011;57205;51.438;-2.006;2022-12-07T14:03:35;11.73;;;4.07;;
66667;SDS011;57205;51.438;-2.006;2022-12-07T14:06:25;20.83;;;5.57;;
66667;SDS011;57205;51.438;-2.006;2022-12-07T14:11:45;12.77;;;5.22;;
66667;SDS011;57205;51.438;-2.006;2022-12-07T14:14:17;13.13;;;5.30;;
66667;SDS011;57205;51.438;-2.006;2022-12-07T14:16:55;18.77;;;5.95;;
66667;SDS011;57205;51.438;-2.006;2022-12-07T14:19:44;17.63;;;6.07;;
66667;SDS011;57205;51.438;-2.006;2022-12-07T14:27:31;15.80;;;7.45;;
66667;SDS011;57205;51.438;-2.006;2022-12-07T14:30:01;19.77;;;6.97;;
66667;SDS011;57205;51.438;-2.006;2022-12-07T14:32:29;11.00;;;6.47;;
66667;SDS011;57205;51.438;-2.006;2022-12-07T14:35:11;15.15;;;8.43;;
66667;SDS011;57205;51.438;-2.006;2022-12-07T14:37:39;15.05;;;8.20;;
66667;SDS011;57205;51.438;-2.006;2022-12-07T14:40:06;20.52;;;8.13;;
66667;SDS011;57205;51.438;-2.006;2022-12-07T14:42:32;13.60;;;7.80;;
66667;SDS011;57205;51.438;-2.006;2022-12-07T14:44:59;21.50;;;9.48;;
66667;SDS011;57205;51.438;-2.006;2022-12-07T14:47:26;17.13;;;7.82;;
66667;SDS011;57205;51.438;-2.006;2022-12-07T14:49:52;11.50;;;6.47;;
66667;SDS011;57205;51.438;-2.006;2022-12-07T14:52:22;11.77;;;5.82;;
66667;SDS011;57205;51.438;-2.006;2022-12-07T14:54:51;12.57;;;6.10;;
66667;SDS011;57205;51.438;-2.006;2022-12-07T14:57:17;9.40;;;4.82;;
66667;SDS011;57205;51.438;-2.006;2022-12-07T14:59:43;17.17;;;5.72;;
66667;SDS011;57205;51.438;-2.006;2022-12-07T15:02:09;19.77;;;10.23;;
66667;SDS011;57205;51.438;-2.006;2022-12-07T15:04:37;13.50;;;6.47;;
66667;SDS011;57205;51.438;-2.006;2022-12-07T15:07:04;18.33;;;7.67;;
66667;SDS011;57205;51.438;-2.006;2022-12-07T15:09:34;14.25;;;6.78;;
66667;SDS011;57205;51.438;-2.006;2022-12-07T15:11:59;12.38;;;6.78;;
66667;SDS011;57205;51.438;-2.006;2022-12-07T15:14:25;9.10;;;5.63;;
66667;SDS011;57205;51.438;-2.006;2022-12-07T15:16:51;17.40;;;7.00;;
66667;SDS011;57205;51.438;-2.006;2022-12-07T15:19:20;17.70;;;7.93;;
66667;SDS011;57205;51.438;-2.006;2022-12-07T15:21:50;15.70;;;7.43;;
66667;SDS011;57205;51.438;-2.006;2022-12-07T15:24:17;14.95;;;6.45;;
66667;SDS011;57205;51.438;-2.006;2022-12-07T15:26:42;27.88;;;10.35;;
66667;SDS011;57205;51.438;-2.006;2022-12-07T15:29:08;13.18;;;5.88;;
66667;SDS011;57205;51.438;-2.006;2022-12-07T15:31:35;10.67;;;5.20;;
66667;SDS011;57205;51.438;-2.006;2022-12-07T15:34:01;10.43;;;5.83;;
66667;SDS011;57205;51.438;-2.006;2022-12-07T15:36:28;12.00;;;5.20;;
66667;SDS011;57205;51.438;-2.006;2022-12-07T15:38:55;11.17;;;5.10;;
66667;SDS011;57205;51.438;-2.006;2022-12-07T15:41:20;17.80;;;6.27;;
66667;SDS011;57205;51.438;-2.006;2022-12-07T15:43:46;8.37;;;4.73;;
66667;SDS011;57205;51.438;-2.006;2022-12-07T15:46:31;11.07;;;5.68;;
66667;SDS011;57205;51.438;-2.006;2022-12-07T15:49:05;10.85;;;4.97;;
66667;SDS011;57205;51.438;-2.006;2022-12-07T15:51:34;10.90;;;5.33;;
66667;SDS011;57205;51.438;-2.006;2022-12-07T15:54:00;11.93;;;5.07;;
66667;SDS011;57205;51.438;-2.006;2022-12-07T15:56:26;9.83;;;4.80;;
66667;SDS011;57205;51.438;-2.006;2022-12-07T15:58:51;12.60;;;5.10;;
66667;SDS011;57205;51.438;-2.006;2022-12-07T16:01:17;7.93;;;4.77;;
66667;SDS011;57205;51.438;-2.006;2022-12-07T16:03:44;5.80;;;4.00;;
66667;SDS011;57205;51.438;-2.006;2022-12-07T16:06:11;8.83;;;4.30;;
66667;SDS011;57205;51.438;-2.006;2022-12-07T16:08:37;10.40;;;4.47;;
66667;SDS011;57205;51.438;-2.006;2022-12-07T16:11:08;9.77;;;4.77;;
66667;SDS011;57205;51.438;-2.006;2022-12-07T16:13:34;11.17;;;5.40;;
66667;SDS011;57205;51.438;-2.006;2022-12-07T16:16:03;6.63;;;4.27;;
66667;SDS011;57205;51.438;-2.006;2022-12-07T16:18:31;10.83;;;5.00;;
66667;SDS011;57205;51.438;-2.006;2022-12-07T16:20:56;11.67;;;5.17;;
66667;SDS011;57205;51.438;-2.006;2022-12-07T16:23:21;11.47;;;5.33;;
66667;SDS011;57205;51.438;-2.006;2022-12-07T16:25:47;10.10;;;4.83;;
66667;SDS011;57205;51.438;-2.006;2022-12-07T16:28:13;10.63;;;4.77;;
66667;SDS011;57205;51.438;-2.006;2022-12-07T16:30:38;13.97;;;5.30;;
66667;SDS011;57205;51.438;-2.006;2022-12-07T16:33:03;9.77;;;5.43;;
66667;SDS011;57205;51.438;-2.006;2022-12-07T16:35:29;8.60;;;5.43;;
66667;SDS011;57205;51.438;-2.006;2022-12-07T16:37:54;13.97;;;5.70;;
66667;SDS011;57205;51.438;-2.006;2022-12-07T16:40:20;11.67;;;5.17;;
66667;SDS011;57205;51.438;-2.006;2022-12-07T16:42:45;13.77;;;5.73;;
66667;SDS011;57205;51.438;-2.006;2022-12-07T16:45:10;8.90;;;5.67;;